Latest Weather Observations for Applethorpe

IDN60801

Issued at 7:42 pm EST Thursday 16 August 2018 (issued every 10 minutes, with the page automatically refreshed every 10 minutes)

About weather observations | Map of weather stations | Latest weather observations for NSW | Other Formats
Station Details ID: 041175 Name: APPLETHORPE Lat: -28.62 Lon: 151.95 Height: 871.6 m
Data from the previous 72 hours. | See also: Recent months at Applethorpe
Date/Time
EST
Temp
°C
App
Temp
°C
Dew
Point
°C
Rel
Hum
%
Delta-T
°C
Wind Press
QNH
hPa
Press
MSL
hPa
Rain since
9am
mm
Dir  Spd
km/h
Gust
km/h
Spd
kts
Gust
kts
16/07:30pm 14.2 9.7 -6.8 23 8.0 W 9 13 5 7 1015.5 1015.2 0.0
16/07:00pm 14.6 10.1 -6.9 22 8.2 W 9 17 5 9 1015.3 1014.9 0.0
16/06:30pm 14.7 10.2 -6.6 22 8.2 W 9 15 5 8 1015.2 1014.8 0.0
16/06:00pm 15.3 10.8 -7.2 20 8.6 W 9 15 5 8 1015.0 1014.6 0.0
16/05:30pm 16.3 11.4 -7.3 19 9.1 W 11 17 6 9 1014.6 1014.3 0.0
16/05:00pm 17.6 12.7 -7.1 18 9.7 W 11 20 6 11 1014.5 1014.2 0.0
16/04:30pm 18.6 12.4 -8.7 15 10.5 W 17 30 9 16 1014.4 1014.0 0.0
16/04:00pm 19.1 13.6 -5.8 18 10.2 WSW 15 32 8 17 1014.4 1014.0 0.0
16/03:30pm 19.4 13.2 -8.7 14 10.9 WSW 17 26 9 14 1014.5 1014.2 0.0
16/03:00pm 19.4 13.1 -10.6 12 11.2 W 17 32 9 17 1014.5 1014.2 0.0
16/02:30pm 19.8 13.9 -10.0 12 11.3 WSW 15 32 8 17 1014.8 1014.4 0.0
16/02:00pm 19.6 13.1 -8.2 14 10.9 WSW 19 32 10 17 1015.1 1014.7 0.0
16/01:30pm 19.4 12.8 -9.4 13 11.0 W 19 39 10 21 1015.2 1014.8 0.0
16/01:00pm 19.6 13.1 -7.6 15 10.8 WSW 19 32 10 17 1015.4 1015.0 0.0
16/12:30pm 19.9 14.3 -6.8 16 10.8 W 15 33 8 18 1015.7 1015.4 0.0
16/12:00pm 19.8 13.9 -6.0 17 10.6 SW 17 30 9 16 1016.2 1015.8 0.0
16/11:30am 18.7 12.6 -7.4 16 10.3 W 17 28 9 15 1016.6 1016.3 0.0
16/11:00am 18.1 11.8 -5.9 19 9.7 WSW 19 32 10 17 1017.3 1016.9 0.0
16/10:30am 18.0 11.5 -6.1 19 9.7 WSW 20 30 11 16 1017.6 1017.3 0.0
16/10:00am 17.5 11.8 -7.4 17 9.7 WSW 15 32 8 17 1017.6 1017.3 0.0
16/09:30am 17.1 11.2 -5.9 20 9.2 SW 17 24 9 13 1017.5 1017.2 0.0
16/09:00am 16.6 11.9 -4.7 23 8.7 WSW 11 19 6 10 1017.5 1017.2 0.0
16/08:30am 15.3 10.7 -4.5 25 8.0 W 11 19 6 10 1017.4 1017.0 0.0
16/08:00am 14.0 9.7 -4.6 27 7.4 W 9 17 5 9 1017.2 1016.8 0.0
16/07:30am 12.8 8.6 -4.0 31 6.7 WSW 9 13 5 7 1017.0 1016.7 0.0
16/07:00am 11.7 7.4 -4.5 32 6.3 W 9 13 5 7 1016.8 1016.5 0.0
16/06:30am 10.8 7.0 -4.1 35 5.8 WSW 7 13 4 7 1016.7 1016.4 0.0
16/06:00am 11.5 6.9 -4.4 32 6.2 W 11 17 6 9 1016.5 1016.2 0.0
16/05:30am 11.1 7.2 -4.3 33 6.0 W 7 17 4 9 1016.3 1015.9 0.0
16/05:00am 11.6 7.0 -4.2 33 6.2 W 11 19 6 10 1016.2 1015.8 0.0
16/04:30am 11.7 7.0 -4.9 31 6.4 W 11 17 6 9 1016.1 1015.7 0.0
16/04:00am 12.2 7.6 -4.3 31 6.5 W 11 17 6 9 1016.0 1015.6 0.0
16/03:30am 12.2 7.6 -4.3 31 6.5 W 11 19 6 10 1016.2 1015.8 0.0
16/03:00am 12.6 8.0 -4.4 30 6.7 W 11 19 6 10 1016.2 1015.8 0.0
16/02:30am 12.1 7.5 -4.5 31 6.5 W 11 17 6 9 1016.4 1016.0 0.0
16/02:00am 11.9 7.3 -3.7 33 6.2 WSW 11 17 6 9 1016.8 1016.5 0.0
16/01:30am 12.1 7.5 -3.7 33 6.3 WSW 11 19 6 10 1016.9 1016.6 0.0
16/01:00am 12.2 8.0 -3.9 32 6.4 WSW 9 19 5 10 1017.4 1017.0 0.0
16/12:30am 12.2 8.0 -3.9 32 6.4 WSW 9 17 5 9 1017.7 1017.4 0.0
16/12:00am 10.0 6.3 -3.2 39 5.2 WSW 7 13 4 7 1017.9 1017.6 0.0
 
Date/Time
EST
Temp
°C
App
Temp
°C
Dew
Point
°C
Rel
Hum
%
Delta-T
°C
Wind Press
QNH
hPa
Press
MSL
hPa
Rain since
9am
mm
Dir  Spd
km/h
Gust
km/h
Spd
kts
Gust
kts
15/11:30pm 7.1 3.5 -2.1 52 3.6 WSW 7 13 4 7 1018.1 1017.8 0.0
15/11:12pm 11.0 7.2 -3.8 35 5.8 WSW 7 13 4 7 1018.0 1017.7 0.0
15/11:00pm 5.8 2.3 -2.6 55 3.2 W 6 11 3 6 1018.1 1017.8 0.0
15/10:30pm 4.9 1.9 -1.6 63 2.5 W 4 6 2 3 1018.6 1018.3 0.0
15/10:00pm 5.0 1.9 -2.7 57 2.9 WSW 4 6 2 3 1018.9 1018.6 0.0
15/09:30pm 5.6 2.5 -2.5 56 3.1 SW 4 6 2 3 1019.0 1018.7 0.0
15/09:00pm 7.1 4.0 -2.8 49 3.8 WSW 4 6 2 3 1019.0 1018.7 0.0
15/08:30pm 8.8 5.6 -3.3 42 4.7 WSW 4 6 2 3 1019.1 1018.8 0.0
15/08:00pm 10.3 6.7 -3.8 37 5.5 WSW 6 7 3 4 1019.2 1018.9 0.0
15/07:30pm 8.1 5.0 -2.7 46 4.2 WSW 4 7 2 4 1018.9 1018.6 0.0
15/07:00pm 9.6 6.5 -2.8 41 4.9 WNW 4 6 2 3 1018.7 1018.4 0.0
15/06:30pm 10.0 7.3 -2.8 40 5.1 WNW 2 2 1 1 1018.6 1018.3 0.0
15/06:00pm 12.5 9.4 -2.6 35 6.2 W 4 6 2 3 1018.5 1018.1 0.0
15/05:30pm 15.2 12.0 -3.4 27 7.7 W 4 7 2 4 1018.5 1018.1 0.0
15/05:00pm 17.3 12.5 -5.9 20 9.3 W 11 20 6 11 1018.3 1018.0 0.0
15/04:30pm 18.3 13.5 -6.4 18 9.9 W 11 20 6 11 1018.2 1017.9 0.0
15/04:00pm 19.0 13.9 -8.9 14 10.7 WNW 11 20 6 11 1018.2 1017.9 0.0
15/03:30pm 19.4 14.7 -9.5 13 11.0 W 9 20 5 11 1018.3 1018.0 0.0
15/03:00pm 19.5 13.9 -11.1 11 11.3 WNW 13 22 7 12 1018.5 1018.1 0.0
15/02:30pm 19.5 13.6 -10.5 12 11.2 W 15 20 8 11 1018.7 1018.4 0.0
15/02:00pm 19.8 14.3 -9.5 13 11.2 W 13 26 7 14 1019.0 1018.7 0.0
15/01:30pm 20.3 15.1 -6.3 16 10.9 WSW 13 26 7 14 1019.2 1018.9 0.0
15/01:00pm 19.6 13.6 -10.8 12 11.3 W 15 24 8 13 1019.7 1019.4 0.0
15/12:30pm 19.8 14.2 -10.9 11 11.4 WNW 13 20 7 11 1020.2 1019.9 0.0
15/12:00pm 19.4 13.6 -8.4 14 10.8 WSW 15 22 8 12 1020.5 1020.3 0.0
15/11:30am 19.9 14.9 -8.6 14 11.1 WNW 11 20 6 11 1021.0 1020.7 0.0
15/11:00am 19.7 15.5 -7.5 15 10.8 WNW 7 15 4 8 1021.3 1021.0 0.0
15/10:30am 18.1 13.8 -4.6 21 9.4 WSW 9 13 5 7 1021.8 1021.6 0.0
15/10:00am 17.1 12.6 -3.3 24 8.6 WSW 11 19 6 10 1022.3 1022.0 0.0
15/09:30am 15.4 10.9 -3.1 28 7.7 SW 11 19 6 10 1022.6 1022.4 0.0
15/09:00am 13.1 9.6 -2.8 33 6.5 SW 6 7 3 4 1022.9 1022.7 0.0
15/08:30am 9.8 7.3 -1.1 46 4.5 SSW 2 6 1 3 1022.8 1022.6 0.0
15/08:28am 9.4 6.9 -0.8 49 4.2 SSW 2 6 1 3 1022.8 1022.6 0.0
15/08:00am 4.3 1.8 -4.0 55 3.0 CALM 0 0 0 0 1022.7 1022.5 0.0
15/07:30am 0.1 - - - - CALM 0 0 0 0 1022.5 1022.3 0.0
15/07:00am -2.2 - - - - CALM 0 0 0 0 1022.4 1022.1 0.0
15/06:30am -2.8 - - - - CALM 0 0 0 0 1022.2 1021.9 0.0
15/06:00am -3.0 - - - - CALM 0 2 0 1 1022.0 1021.8 0.0
15/05:30am -2.8 - - - - CALM 0 0 0 0 1022.0 1021.8 0.0
15/05:00am -2.6 - - - - CALM 0 0 0 0 1022.0 1021.8 0.0
15/04:30am -2.4 - - - - CALM 0 0 0 0 1021.8 1021.6 0.0
15/04:00am -2.3 - - - - CALM 0 0 0 0 1021.9 1021.7 0.0
15/03:30am -2.1 - - - - CALM 0 0 0 0 1022.0 1021.8 0.0
15/03:00am -1.9 - - - - CALM 0 0 0 0 1022.3 1022.0 0.0
15/02:30am -1.5 - - - - CALM 0 0 0 0 1022.5 1022.3 0.0
15/02:00am -1.4 - - - - CALM 0 0 0 0 1022.8 1022.6 0.0
15/01:30am -1.1 - - - - CALM 0 0 0 0 1022.9 1022.7 0.0
15/01:00am -0.4 - - - - CALM 0 0 0 0 1023.1 1022.9 0.0
15/12:30am -0.1 - - - - CALM 0 0 0 0 1023.2 1023.0 0.0
15/12:00am 0.4 - - - - CALM 0 0 0 0 1023.4 1023.1 0.0
 
Date/Time
EST
Temp
°C
App
Temp
°C
Dew
Point
°C
Rel
Hum
%
Delta-T
°C
Wind Press
QNH
hPa
Press
MSL
hPa
Rain since
9am
mm
Dir  Spd
km/h
Gust
km/h
Spd
kts
Gust
kts
14/11:30pm 0.7 - - - - CALM 0 0 0 0 1023.6 1023.4 0.0
14/11:00pm 1.4 -0.8 -1.6 80 1.1 CALM 0 0 0 0 1023.8 1023.6 0.0
14/10:30pm 1.6 -1.0 -1.6 79 1.2 NE 2 6 1 3 1024.0 1023.8 0.0
14/10:00pm 2.6 0.5 -1.1 76 1.4 CALM 0 0 0 0 1024.0 1023.8 0.0
14/09:30pm 3.8 1.5 -2.4 64 2.3 CALM 0 0 0 0 1024.0 1023.8 0.0
14/09:00pm 4.6 2.3 -2.0 62 2.5 CALM 0 0 0 0 1024.0 1023.8 0.0
14/08:30pm 4.8 2.8 -0.2 70 2.0 CALM 0 0 0 0 1024.0 1023.8 0.0
14/08:00pm 6.3 3.3 -1.6 57 3.1 WSW 4 6 2 3 1023.8 1023.6 0.0
14/07:30pm 7.1 4.9 -1.8 53 3.5 CALM 0 0 0 0 1023.6 1023.4 0.0
14/07:00pm 8.2 6.0 -1.9 49 4.0 CALM 0 0 0 0 1023.2 1023.0 0.0
14/06:30pm 12.2 9.0 -3.2 34 6.2 W 4 6 2 3 1022.8 1022.6 0.0
14/06:00pm 13.3 10.1 -3.2 31 6.7 W 4 9 2 5 1022.6 1022.4 0.0
14/05:30pm 15.2 11.7 -3.1 28 7.6 W 6 9 3 5 1022.7 1022.5 0.0
14/05:00pm 17.4 13.5 -4.4 22 9.0 W 7 13 4 7 1022.5 1022.3 0.0
14/04:30pm 18.4 14.5 -4.4 21 9.5 W 7 15 4 8 1022.3 1022.0 0.0
14/04:00pm 19.3 15.0 -5.0 19 10.1 W 9 13 5 7 1022.0 1021.8 0.0
14/03:30pm 19.8 15.5 -5.2 18 10.4 WSW 9 15 5 8 1022.2 1021.9 0.0
14/03:00pm 20.1 15.6 -7.0 15 10.9 W 9 15 5 8 1022.2 1021.9 0.0
14/02:30pm 19.7 15.2 -6.5 16 10.6 WSW 9 13 5 7 1022.4 1022.1 0.0
14/02:00pm 19.8 15.9 -4.7 18 10.3 SW 7 15 4 8 1022.4 1022.1 0.0
14/01:30pm 20.3 16.1 -4.0 19 10.4 SW 9 15 5 8 1022.6 1022.4 0.0
14/01:00pm 20.9 17.2 -4.4 18 10.8 SSW 6 11 3 6 1022.7 1022.5 0.0
14/12:30pm 20.2 16.1 -6.7 15 10.9 SW 7 13 4 7 1023.1 1022.9 0.0
14/12:00pm 19.6 16.0 -7.3 15 10.7 W 4 11 2 6 1023.6 1023.4 0.0
14/11:30am 19.1 15.4 -8.8 14 10.7 S 4 7 2 4 1024.0 1023.8 0.0
14/11:00am 17.7 14.0 -8.2 16 9.9 SW 4 9 2 5 1024.6 1024.4 0.0
14/10:30am 16.2 12.1 -6.8 20 8.9 SW 7 13 4 7 1025.1 1024.9 0.0
14/10:00am 14.5 10.6 -5.0 25 7.7 SW 7 11 4 6 1025.4 1025.3 0.0
14/09:30am 12.7 8.9 -3.5 32 6.5 SW 7 13 4 7 1025.4 1025.3 0.0
14/09:00am 11.5 8.0 -3.0 36 5.8 SW 6 7 3 4 1025.3 1025.1 0.0
14/08:30am 7.8 5.4 -2.8 47 4.1 CALM 0 2 0 1 1025.5 1025.4 0.0
14/08:00am 4.3 2.2 -1.1 68 2.1 CALM 0 0 0 0 1025.3 1025.1 0.0
14/07:30am -0.2 - - - - NE 4 4 2 2 1025.0 1024.8 0.0
14/07:00am -2.9 - - - - ENE 4 4 2 2 1024.7 1024.5 0.0
14/06:30am -3.5 - - - - CALM 0 0 0 0 1024.6 1024.4 0.0
14/06:00am -3.8 - - - - CALM 0 0 0 0 1024.2 1024.0 0.0
14/05:30am -3.5 - - - - CALM 0 0 0 0 1023.8 1023.6 0.0
14/05:00am -3.3 - - - - CALM 0 0 0 0 1023.5 1023.3 0.0
14/04:30am -3.3 - - - - CALM 0 0 0 0 1023.5 1023.3 0.0
14/04:00am -2.9 - - - - CALM 0 0 0 0 1023.4 1023.1 0.0
14/03:30am -2.7 - - - - CALM 0 0 0 0 1023.4 1023.1 0.0
14/03:00am -2.1 - - - - NE 2 4 1 2 1023.6 1023.4 0.0
14/02:30am -2.3 - - - - SSW 4 6 2 3 1023.9 1023.7 0.0
14/02:00am -1.6 - - - - CALM 0 2 0 1 1023.8 1023.6 0.0
14/01:30am -1.3 - - - - CALM 0 0 0 0 1024.2 1024.0 0.0
14/01:00am -0.6 - - - - NE 4 4 2 2 1024.3 1024.1 0.0
14/12:30am -0.2 - - - - CALM 0 0 0 0 1024.6 1024.4 0.0
14/12:00am 0.7 - - - - W 2 2 1 1 1024.4 1024.3 0.0
 
Date/Time
EST
Temp
°C
App
Temp
°C
Dew
Point
°C
Rel
Hum
%
Delta-T
°C
Wind Press
QNH
hPa
Press
MSL
hPa
Rain since
9am
mm
Dir  Spd
km/h
Gust
km/h
Spd
kts
Gust
kts
13/11:30pm 1.8 - - - - SW 4 7 2 4 1024.7 1024.5 0.0
13/11:00pm 0.5 - - - - SSW 4 6 2 3 1024.6 1024.4 0.0
13/10:30pm 1.8 - - - - CALM 0 0 0 0 1024.3 1024.1 0.0
13/10:00pm 3.0 0.6 -3.1 64 2.2 CALM 0 0 0 0 1024.4 1024.3 0.0
13/09:30pm 4.5 1.3 -3.1 58 2.8 SSW 4 7 2 4 1024.4 1024.3 0.0
13/09:00pm 5.7 2.0 -4.2 49 3.6 SW 6 7 3 4 1024.7 1024.5 0.0
13/08:30pm 5.5 2.3 -3.1 54 3.2 WSW 4 7 2 4 1024.3 1024.1 0.0
13/08:00pm 4.5 1.4 -2.4 61 2.6 W 4 6 2 3 1024.0 1023.8 0.0

Other Formats:

Comma delimited format used in spreadsheet applications
http://www.bom.gov.au/fwo/IDN60801/IDN60801.94553.axf

JavaScript Object Notation format (JSON) in row-major order
http://www.bom.gov.au/fwo/IDN60801/IDN60801.94553.json